createdAt,value
2018-12-09T00:00:38.045Z,94539.73
2018-12-09T00:01:16.391Z,94547.43
2018-12-09T00:01:54.654Z,94541.75
2018-12-09T00:02:32.719Z,94550.26
2018-12-09T00:03:10.679Z,94541.42
2018-12-09T00:03:48.942Z,94552.59
2018-12-09T00:04:26.891Z,94549.37
2018-12-09T00:05:04.929Z,94551.43
2018-12-09T00:05:42.871Z,94545.77
2018-12-09T00:06:20.842Z,94538.09
2018-12-09T00:06:58.606Z,94535.63
2018-12-09T00:07:36.694Z,94537.69
2018-12-09T00:08:14.650Z,94541.63
2018-12-09T00:08:52.683Z,94528.95
2018-12-09T00:09:30.651Z,94545.98
2018-12-09T00:10:08.522Z,94545.31
2018-12-09T00:10:46.623Z,94538.28
2018-12-09T00:11:24.870Z,94548.19
2018-12-09T00:12:03.244Z,94527.23
2018-12-09T00:12:41.253Z,94540.19
2018-12-09T00:13:19.122Z,94536.97
2018-12-09T00:13:57.100Z,94534.20
2018-12-09T00:14:34.954Z,94508.73
2018-12-09T00:15:13.100Z,94533.12
2018-12-09T00:15:50.869Z,94517.62
2018-12-09T00:16:29.139Z,94525.30
2018-12-09T00:17:07.283Z,94509.53
2018-12-09T00:17:45.241Z,94516.36
2018-12-09T00:18:23.282Z,94509.97
2018-12-09T00:19:01.230Z,94519.45
2018-12-09T00:19:39.300Z,94507.47
2018-12-09T00:20:17.409Z,94513.95
2018-12-09T00:20:55.189Z,94507.20
2018-12-09T00:21:33.405Z,94515.61
2018-12-09T00:22:11.328Z,94519.04
2018-12-09T00:22:49.697Z,94520.19
2018-12-09T00:23:27.489Z,94518.46
2018-12-09T00:24:05.569Z,94493.03
2018-12-09T00:24:43.559Z,94504.52
2018-12-09T00:25:21.421Z,94502.62
2018-12-09T00:25:59.902Z,94489.62
2018-12-09T00:26:37.870Z,94497.13
2018-12-09T00:27:15.825Z,94495.78
2018-12-09T00:27:54.249Z,94488.14
2018-12-09T00:28:32.307Z,94486.17
2018-12-09T00:29:10.543Z,94476.92
2018-12-09T00:29:48.766Z,94474.77
2018-12-09T00:30:26.590Z,94472.84
2018-12-09T00:31:04.567Z,94474.17
2018-12-09T00:31:42.595Z,94476.78
2018-12-09T00:32:20.655Z,94475.96
2018-12-09T00:32:58.539Z,94478.47
2018-12-09T00:33:36.647Z,94476.12
2018-12-09T00:34:14.958Z,94469.80
2018-12-09T00:34:53.026Z,94474.06
2018-12-09T00:35:31.065Z,94465.69
2018-12-09T00:36:09.055Z,94453.86
2018-12-09T00:36:46.869Z,94459.59
2018-12-09T00:37:25.259Z,94462.94
2018-12-09T00:38:03.264Z,94458.05
2018-12-09T00:38:41.340Z,94466.99
2018-12-09T00:39:19.396Z,94474.27
2018-12-09T00:39:57.466Z,94464.59
2018-12-09T00:40:35.649Z,94472.51
2018-12-09T00:41:13.750Z,94459.11
2018-12-09T00:41:51.694Z,94460.59
2018-12-09T00:42:29.644Z,94467.44
2018-12-09T00:43:07.534Z,94467.03
2018-12-09T00:43:45.713Z,94462.76
2018-12-09T00:44:23.443Z,94458.77
2018-12-09T00:45:01.443Z,94453.85
2018-12-09T00:45:39.706Z,94442.44
2018-12-09T00:46:18.054Z,94441.39
2018-12-09T00:46:56.243Z,94441.39
2018-12-09T00:47:33.906Z,94435.24
2018-12-09T00:48:12.094Z,94430.67
2018-12-09T00:48:50.013Z,94436.34
2018-12-09T00:49:28.213Z,94426.59
2018-12-09T00:50:06.412Z,94416.92
2018-12-09T00:50:44.566Z,94413.83
2018-12-09T00:51:22.544Z,94411.57
2018-12-09T00:52:00.813Z,94416.06
2018-12-09T00:52:38.551Z,94404.57
2018-12-09T00:53:16.692Z,94406.58
2018-12-09T00:53:54.685Z,94411.66
2018-12-09T00:54:32.565Z,94408.33
2018-12-09T00:55:10.533Z,94403.40
2018-12-09T00:55:48.532Z,94394.99
2018-12-09T00:56:26.301Z,94413.33
2018-12-09T00:57:04.481Z,94398.98
2018-12-09T00:57:42.644Z,94414.33
2018-12-09T00:58:20.731Z,94405.75
2018-12-09T00:58:58.920Z,94407.92
2018-12-09T00:59:36.833Z,94427.81
2018-12-09T01:00:14.823Z,94411.66
2018-12-09T01:00:52.911Z,94412.98
2018-12-09T01:01:31.039Z,94405.83
2018-12-09T01:02:09.392Z,94416.25
2018-12-09T01:02:47.328Z,94410.17
2018-12-09T01:03:25.420Z,94415.48
2018-12-09T01:04:03.200Z,94406.06
2018-12-09T01:04:41.310Z,94424.56
2018-12-09T01:05:19.109Z,94426.58
2018-12-09T01:05:56.959Z,94424.98
2018-12-09T01:06:35.380Z,94416.23
2018-12-09T01:07:13.321Z,94411.91
2018-12-09T01:07:51.388Z,94419.41
2018-12-09T01:08:29.537Z,94412.58
2018-12-09T01:09:07.656Z,94426.41
2018-12-09T01:09:45.877Z,94415.73
2018-12-09T01:10:24.336Z,94422.08
2018-12-09T01:11:02.144Z,94410.98
2018-12-09T01:11:40.385Z,94418.81
2018-12-09T01:12:18.548Z,94409.48
2018-12-09T01:12:56.547Z,94407.51
2018-12-09T01:13:35.121Z,94403.23
2018-12-09T01:14:13.227Z,94412.16
2018-12-09T01:14:51.468Z,94407.92
2018-12-09T01:15:29.666Z,94404.28
2018-12-09T01:16:07.629Z,94402.25
2018-12-09T01:16:45.790Z,94404.78
2018-12-09T01:17:23.648Z,94403.59
2018-12-09T01:18:02.288Z,94399.02
2018-12-09T01:18:40.129Z,94393.69
2018-12-09T01:19:18.007Z,94399.07
2018-12-09T01:19:56.056Z,94388.24
2018-12-09T01:20:33.946Z,94384.50
2018-12-09T01:21:12.023Z,94382.93
2018-12-09T01:21:49.907Z,94383.92
2018-12-09T01:22:28.166Z,94383.56
2018-12-09T01:23:05.846Z,94371.50
2018-12-09T01:23:43.848Z,94382.27
2018-12-09T01:24:21.866Z,94390.08
2018-12-09T01:24:59.975Z,94390.75
2018-12-09T01:25:37.795Z,94372.52
2018-12-09T01:26:15.951Z,94387.67
2018-12-09T01:26:54.414Z,94381.68
2018-12-09T01:27:32.426Z,94382.99
2018-12-09T01:28:10.336Z,94384.73
2018-12-09T01:28:48.484Z,94393.88
2018-12-09T01:29:26.617Z,94387.73
2018-12-09T01:30:52.254Z,94384.55
2018-12-09T01:31:30.364Z,94379.20
2018-12-09T01:32:08.467Z,94377.70
2018-12-09T01:32:46.441Z,94379.20
2018-12-09T01:33:24.637Z,94380.79
2018-12-09T01:34:02.931Z,94366.88
2018-12-09T01:34:41.295Z,94369.38
2018-12-09T01:35:19.174Z,94370.41
2018-12-09T01:35:57.824Z,94369.00
2018-12-09T01:36:36.104Z,94369.66
2018-12-09T01:37:14.065Z,94384.42
2018-12-09T01:37:52.087Z,94367.00
2018-12-09T01:38:30.363Z,94359.42
2018-12-09T01:39:08.903Z,94371.42
2018-12-09T01:39:46.787Z,94366.08
2018-12-09T01:40:24.764Z,94369.92
2018-12-09T01:41:02.818Z,94364.66
2018-12-09T01:41:41.214Z,94364.73
2018-12-09T01:42:19.213Z,94357.50
2018-12-09T01:42:57.295Z,94360.17
2018-12-09T01:43:35.666Z,94365.67
2018-12-09T01:44:13.822Z,94363.91
2018-12-09T01:44:51.934Z,94355.76
2018-12-09T01:45:29.763Z,94364.09
2018-12-09T01:46:07.586Z,94358.16
2018-12-09T01:46:45.629Z,94366.00
2018-12-09T01:47:23.624Z,94367.85
2018-12-09T01:48:02.433Z,94349.58
2018-12-09T01:48:40.706Z,94340.11
2018-12-09T01:49:18.626Z,94352.44
2018-12-09T01:49:56.562Z,94353.94
2018-12-09T01:50:34.382Z,94357.51
2018-12-09T01:51:12.373Z,94354.13
2018-12-09T01:51:50.135Z,94349.19
2018-12-09T01:52:28.631Z,94366.91
2018-12-09T01:53:06.232Z,94346.75
2018-12-09T01:53:44.502Z,94346.25
2018-12-09T01:54:22.424Z,94335.93
2018-12-09T01:55:00.402Z,94342.30
2018-12-09T01:55:38.341Z,94359.00
2018-12-09T01:56:16.461Z,94357.85
2018-12-09T01:56:55.008Z,94356.03
2018-12-09T01:57:33.004Z,94337.63
2018-12-09T01:58:11.684Z,94333.52
2018-12-09T01:58:50.143Z,94360.94
2018-12-09T01:59:28.413Z,94366.41
2018-12-09T02:00:06.531Z,94361.09
2018-12-09T02:00:44.552Z,94354.67
2018-12-09T02:01:22.739Z,94358.09
2018-12-09T02:02:00.890Z,94355.59
2018-12-09T02:02:39.043Z,94343.83
2018-12-09T02:03:17.072Z,94355.34
2018-12-09T02:03:55.159Z,94355.67
2018-12-09T02:04:33.095Z,94341.52
2018-12-09T02:05:10.762Z,94349.69
2018-12-09T02:05:49.735Z,94353.75
2018-12-09T02:06:27.648Z,94368.10
2018-12-09T02:07:05.839Z,94361.37
2018-12-09T02:07:43.921Z,94362.47
2018-12-09T02:08:22.008Z,94356.38
2018-12-09T02:09:00.429Z,94361.97
2018-12-09T02:09:38.196Z,94360.78
2018-12-09T02:10:16.949Z,94354.64
2018-12-09T02:10:54.886Z,94359.14
2018-12-09T02:11:32.977Z,94361.64
2018-12-09T02:12:11.158Z,94350.05
2018-12-09T02:12:49.201Z,94345.81
2018-12-09T02:13:26.938Z,94346.39
2018-12-09T02:14:04.539Z,94348.95
2018-12-09T02:14:44.078Z,94344.98
2018-12-09T02:15:22.007Z,94353.25
2018-12-09T02:16:00.192Z,94344.00
2018-12-09T02:16:38.076Z,94355.66
2018-12-09T02:17:16.179Z,94355.92
2018-12-09T02:17:54.300Z,94346.83
2018-12-09T02:18:32.446Z,94344.17
2018-12-09T02:19:10.375Z,94355.16
2018-12-09T02:19:48.605Z,94342.26
2018-12-09T02:20:26.689Z,94344.31
2018-12-09T02:21:04.386Z,94358.73
2018-12-09T02:21:42.357Z,94353.66
2018-12-09T02:22:20.177Z,94354.83
2018-12-09T02:22:57.967Z,94339.83
2018-12-09T02:23:36.327Z,94334.17
2018-12-09T02:24:14.585Z,94335.67
2018-12-09T02:24:52.495Z,94332.48
2018-12-09T02:25:30.478Z,94342.12
2018-12-09T02:26:08.315Z,94333.30
2018-12-09T02:26:46.504Z,94329.78
2018-12-09T02:27:24.726Z,94329.80
2018-12-09T02:28:03.095Z,94322.03
2018-12-09T02:28:41.004Z,94326.84
2018-12-09T02:29:19.267Z,94345.73
2018-12-09T02:29:57.222Z,94336.72
2018-12-09T02:30:35.275Z,94341.00
2018-12-09T02:31:13.154Z,94334.72
2018-12-09T02:31:51.235Z,94337.55
2018-12-09T02:32:29.633Z,94338.99
2018-12-09T02:33:07.711Z,94348.00
2018-12-09T02:33:45.736Z,94330.16
2018-12-09T02:34:23.723Z,94343.00
2018-12-09T02:35:01.727Z,94333.58
2018-12-09T02:35:39.980Z,94335.03
2018-12-09T02:36:18.135Z,94329.48
2018-12-09T02:36:56.373Z,94312.98
2018-12-09T02:37:34.244Z,94335.08
2018-12-09T02:38:12.065Z,94325.34
2018-12-09T02:38:49.864Z,94320.60
2018-12-09T02:39:27.908Z,94325.09
2018-12-09T02:40:05.963Z,94314.59
2018-12-09T02:40:43.703Z,94316.83
2018-12-09T02:41:21.824Z,94322.16
2018-12-09T02:41:59.542Z,94314.06
2018-12-09T02:42:37.525Z,94310.85
2018-12-09T02:43:15.744Z,94321.52
2018-12-09T02:43:53.593Z,94318.83
2018-12-09T02:44:31.840Z,94308.85
2018-12-09T02:45:09.781Z,94323.52
2018-12-09T02:45:48.322Z,94312.78
2018-12-09T02:46:26.642Z,94315.78
2018-12-09T02:47:04.723Z,94312.52
2018-12-09T02:47:43.015Z,94311.08
2018-12-09T02:48:21.263Z,94313.26
2018-12-09T02:48:59.151Z,94297.66
2018-12-09T02:49:36.974Z,94307.48
2018-12-09T02:50:14.982Z,94308.01
2018-12-09T02:50:53.026Z,94306.92
2018-12-09T02:51:31.177Z,94309.23
2018-12-09T02:52:09.243Z,94310.34
2018-12-09T02:52:47.344Z,94314.98
2018-12-09T02:53:25.673Z,94309.84
2018-12-09T02:54:03.392Z,94312.98
2018-12-09T02:54:41.131Z,94314.66
2018-12-09T02:55:19.655Z,94301.94
2018-12-09T02:55:57.623Z,94304.50
2018-12-09T02:56:35.626Z,94306.59
2018-12-09T02:57:13.892Z,94320.34
2018-12-09T02:57:51.872Z,94288.83
2018-12-09T02:58:29.862Z,94297.80
2018-12-09T02:59:07.933Z,94302.48
2018-12-09T02:59:45.969Z,94306.33
2018-12-09T03:00:24.062Z,94301.95
2018-12-09T03:01:02.104Z,94295.02
2018-12-09T03:01:41.239Z,94303.43
2018-12-09T03:02:19.182Z,94296.52
2018-12-09T03:02:57.074Z,94302.43
2018-12-09T03:03:35.142Z,94303.43
2018-12-09T03:04:13.066Z,94298.77
2018-12-09T03:04:51.585Z,94291.27
2018-12-09T03:05:29.415Z,94294.00
2018-12-09T03:06:07.068Z,94293.44
2018-12-09T03:06:45.152Z,94294.34
2018-12-09T03:07:23.153Z,94289.34
2018-12-09T03:08:00.955Z,94291.18
2018-12-09T03:08:38.781Z,94287.94
2018-12-09T03:09:16.913Z,94269.67
2018-12-09T03:09:54.954Z,94280.52
2018-12-09T03:10:32.993Z,94284.77
2018-12-09T03:11:11.184Z,94282.20
2018-12-09T03:11:48.989Z,94278.86
2018-12-09T03:12:27.073Z,94278.10
2018-12-09T03:13:05.488Z,94280.27
2018-12-09T03:13:44.037Z,94275.27
2018-12-09T03:14:21.997Z,94275.44
2018-12-09T03:15:00.290Z,94262.34
2018-12-09T03:15:38.207Z,94269.94
2018-12-09T03:16:16.223Z,94267.63
2018-12-09T03:16:54.233Z,94266.20
2018-12-09T03:17:32.336Z,94269.91
2018-12-09T03:18:10.863Z,94269.00
2018-12-09T03:18:49.052Z,94261.77
2018-12-09T03:19:26.706Z,94262.02
2018-12-09T03:20:05.011Z,94262.94
2018-12-09T03:20:43.382Z,94256.77
2018-12-09T03:21:21.449Z,94258.60
2018-12-09T03:21:59.507Z,94250.20
2018-12-09T03:22:38.743Z,94255.27
2018-12-09T03:23:16.472Z,94256.77
2018-12-09T03:23:54.471Z,94253.60
2018-12-09T03:24:32.422Z,94257.53
2018-12-09T03:25:10.421Z,94249.87
2018-12-09T03:25:48.630Z,94247.69
2018-12-09T03:26:26.306Z,94248.66
2018-12-09T03:27:04.462Z,94255.30
2018-12-09T03:27:42.163Z,94246.63
2018-12-09T03:28:20.278Z,94247.30
2018-12-09T03:28:58.641Z,94248.80
2018-12-09T03:29:36.681Z,94242.72
2018-12-09T03:30:14.733Z,94236.23
2018-12-09T03:30:52.684Z,94242.30
2018-12-09T03:31:30.707Z,94235.95
2018-12-09T03:32:08.559Z,94228.45
2018-12-09T03:32:46.493Z,94231.09
2018-12-09T03:33:24.452Z,94226.69
2018-12-09T03:34:02.761Z,94235.84
2018-12-09T03:34:40.921Z,94231.04
2018-12-09T03:35:18.992Z,94230.78
2018-12-09T03:35:57.052Z,94233.53
2018-12-09T03:36:34.929Z,94228.44
2018-12-09T03:37:13.181Z,94231.78
2018-12-09T03:37:51.528Z,94224.54
2018-12-09T03:38:29.343Z,94223.11
2018-12-09T03:39:07.224Z,94227.86
2018-12-09T03:39:45.074Z,94212.75
2018-12-09T03:40:23.312Z,94212.58
2018-12-09T03:41:01.622Z,94217.16
2018-12-09T03:41:39.938Z,94213.41
2018-12-09T03:42:17.892Z,94216.58
2018-12-09T03:42:55.851Z,94217.48
2018-12-09T03:43:33.872Z,94210.34
2018-12-09T03:44:12.710Z,94210.84
2018-12-09T03:44:50.993Z,94207.20
2018-12-09T03:45:29.064Z,94199.84
2018-12-09T03:46:07.555Z,94204.03
2018-12-09T03:46:45.417Z,94201.28
2018-12-09T03:47:23.611Z,94196.28
2018-12-09T03:48:01.530Z,94203.59
2018-12-09T03:48:39.311Z,94192.71
2018-12-09T03:49:17.590Z,94195.70
2018-12-09T03:49:55.841Z,94187.38
2018-12-09T03:50:34.901Z,94187.20
2018-12-09T03:51:13.211Z,94189.30
2018-12-09T03:51:51.142Z,94186.28
2018-12-09T03:52:29.042Z,94185.77
2018-12-09T03:53:06.971Z,94184.95
2018-12-09T03:53:44.922Z,94176.45
2018-12-09T03:54:23.547Z,94173.22
2018-12-09T03:55:01.819Z,94170.12
2018-12-09T03:55:39.791Z,94174.05
2018-12-09T03:56:17.720Z,94170.89
2018-12-09T03:56:55.988Z,94182.09
2018-12-09T03:57:34.416Z,94168.75
2018-12-09T03:58:12.401Z,94168.17
2018-12-09T03:58:50.789Z,94168.08
2018-12-09T03:59:29.279Z,94175.95
2018-12-09T04:00:07.214Z,94176.36
2018-12-09T04:00:45.244Z,94171.70
2018-12-09T04:01:23.262Z,94171.44
2018-12-09T04:02:01.111Z,94158.62
2018-12-09T04:02:39.153Z,94152.11
2018-12-09T04:03:17.221Z,94162.16
2018-12-09T04:03:54.994Z,94164.73
2018-12-09T04:04:32.973Z,94155.12
2018-12-09T04:05:11.190Z,94157.19
2018-12-09T04:05:49.251Z,94148.01
2018-12-09T04:06:27.449Z,94150.39
2018-12-09T04:07:05.430Z,94154.22
2018-12-09T04:07:43.342Z,94152.68
2018-12-09T04:08:21.403Z,94162.30
2018-12-09T04:08:59.372Z,94167.40
2018-12-09T04:09:37.732Z,94162.14
2018-12-09T04:10:15.859Z,94159.47
2018-12-09T04:10:54.009Z,94165.40
2018-12-09T04:11:32.103Z,94156.80
2018-12-09T04:12:10.177Z,94151.12
2018-12-09T04:12:48.431Z,94139.41
2018-12-09T04:13:26.660Z,94150.12
2018-12-09T04:14:05.086Z,94140.28
2018-12-09T04:14:42.840Z,94149.66
2018-12-09T04:15:21.974Z,94149.73
2018-12-09T04:15:59.822Z,94145.73
2018-12-09T04:16:37.711Z,94165.58
2018-12-09T04:17:15.722Z,94171.47
2018-12-09T04:17:53.748Z,94151.41
2018-12-09T04:18:32.323Z,94149.77
2018-12-09T04:19:10.110Z,94141.58
2018-12-09T04:19:48.422Z,94146.23
2018-12-09T04:20:26.239Z,94150.58
2018-12-09T04:21:04.239Z,94152.77
2018-12-09T04:21:42.188Z,94149.98
2018-12-09T04:22:20.469Z,94150.44
2018-12-09T04:22:58.718Z,94143.80
2018-12-09T04:23:36.629Z,94156.63
2018-12-09T04:24:14.509Z,94159.24
2018-12-09T04:24:52.555Z,94137.61
2018-12-09T04:25:30.568Z,94143.11
2018-12-09T04:26:08.602Z,94155.09
2018-12-09T04:26:46.480Z,94145.22
2018-12-09T04:27:24.359Z,94149.15
2018-12-09T04:28:02.582Z,94145.77
2018-12-09T04:28:40.751Z,94156.74
2018-12-09T04:29:18.679Z,94144.81
2018-12-09T04:29:56.748Z,94154.22
2018-12-09T04:30:34.838Z,94159.48
2018-12-09T04:31:12.999Z,94159.50
2018-12-09T04:31:51.038Z,94169.81
2018-12-09T04:32:28.850Z,94149.65
2018-12-09T04:33:07.329Z,94159.91
2018-12-09T04:33:45.278Z,94163.64
2018-12-09T04:34:23.220Z,94169.95
2018-12-09T04:35:01.229Z,94161.59
2018-12-09T04:35:39.409Z,94174.98
2018-12-09T04:36:17.603Z,94164.53
2018-12-09T04:36:56.031Z,94177.28
2018-12-09T04:37:34.379Z,94171.53
2018-12-09T04:38:12.579Z,94172.36
2018-12-09T04:38:50.862Z,94163.79
2018-12-09T04:39:28.758Z,94186.48
2018-12-09T04:40:08.630Z,94192.55
2018-12-09T04:40:46.818Z,94177.46
2018-12-09T04:41:25.569Z,94185.38
2018-12-09T04:42:04.083Z,94189.72
2018-12-09T04:42:42.103Z,94178.72
2018-12-09T04:43:19.773Z,94172.89
2018-12-09T04:43:58.850Z,94200.80
2018-12-09T04:44:37.128Z,94182.77
2018-12-09T04:45:15.345Z,94174.94
2018-12-09T04:45:53.393Z,94183.81
2018-12-09T04:46:31.719Z,94209.05
2018-12-09T04:47:09.959Z,94199.63
2018-12-09T04:47:48.371Z,94195.63
2018-12-09T04:48:26.139Z,94207.39
2018-12-09T04:49:04.269Z,94212.80
2018-12-09T04:49:42.528Z,94213.86
2018-12-09T04:50:20.650Z,94193.94
2018-12-09T04:50:58.929Z,94208.20
2018-12-09T04:51:36.792Z,94197.20
2018-12-09T04:52:14.793Z,94214.34
2018-12-09T04:52:52.708Z,94209.60
2018-12-09T04:53:30.752Z,94218.36
2018-12-09T04:54:08.587Z,94224.70
2018-12-09T04:54:46.457Z,94222.89
2018-12-09T04:55:24.827Z,94219.48
2018-12-09T04:56:02.767Z,94230.55
2018-12-09T04:56:40.790Z,94231.31
2018-12-09T04:57:18.735Z,94242.98
2018-12-09T04:57:56.888Z,94222.45
2018-12-09T04:58:34.889Z,94231.81
2018-12-09T04:59:13.117Z,94228.72
2018-12-09T04:59:50.837Z,94231.15
2018-12-09T05:00:29.026Z,94234.62
2018-12-09T05:01:07.076Z,94243.31
2018-12-09T05:01:44.976Z,94235.30
2018-12-09T05:02:22.851Z,94240.19
2018-12-09T05:03:00.881Z,94255.97
2018-12-09T05:03:38.948Z,94252.31
2018-12-09T05:04:17.078Z,94253.87
2018-12-09T05:04:55.343Z,94254.81
2018-12-09T05:05:33.315Z,94256.94
2018-12-09T05:06:11.377Z,94254.77
2018-12-09T05:06:49.491Z,94263.56
2018-12-09T05:07:27.521Z,94270.41
2018-12-09T05:08:05.634Z,94262.39
2018-12-09T05:08:43.887Z,94273.39
2018-12-09T05:09:21.704Z,94269.56
2018-12-09T05:09:59.838Z,94274.22
2018-12-09T05:10:37.879Z,94269.19
2018-12-09T05:11:15.949Z,94268.63
2018-12-09T05:11:54.060Z,94275.91
2018-12-09T05:12:32.179Z,94276.27
2018-12-09T05:13:09.990Z,94277.71
2018-12-09T05:13:48.371Z,94279.29
2018-12-09T05:14:26.370Z,94288.45
2018-12-09T05:15:04.440Z,94287.47
2018-12-09T05:15:42.689Z,94288.41
2018-12-09T05:16:20.762Z,94292.08
2018-12-09T05:16:58.715Z,94282.44
2018-12-09T05:17:36.772Z,94295.84
2018-12-09T05:18:14.810Z,94297.81
2018-12-09T05:18:52.981Z,94293.47
2018-12-09T05:19:30.741Z,94294.30
2018-12-09T05:20:08.591Z,94292.37
2018-12-09T05:20:46.581Z,94287.47
2018-12-09T05:21:24.826Z,94288.64
2018-12-09T05:22:02.922Z,94294.19
2018-12-09T05:22:40.874Z,94289.27
2018-12-09T05:23:19.222Z,94295.69
2018-12-09T05:23:57.185Z,94295.69
2018-12-09T05:24:35.163Z,94306.21
2018-12-09T05:25:13.232Z,94302.47
2018-12-09T05:25:51.384Z,94299.14
2018-12-09T05:26:29.522Z,94302.62
2018-12-09T05:27:07.653Z,94306.71
2018-12-09T05:27:45.748Z,94322.69
2018-12-09T05:28:23.913Z,94307.37
2018-12-09T05:29:02.343Z,94304.12
2018-12-09T05:29:40.385Z,94301.17
2018-12-09T05:30:18.064Z,94296.36
2018-12-09T05:30:55.837Z,94285.91
2018-12-09T05:31:34.214Z,94284.86
2018-12-09T05:32:12.373Z,94304.47
2018-12-09T05:32:50.502Z,94318.05
2018-12-09T05:33:28.905Z,94320.64
2018-12-09T05:34:07.544Z,94319.62
2018-12-09T05:34:45.759Z,94316.88
2018-12-09T05:35:23.694Z,94318.65
2018-12-09T05:36:01.953Z,94320.00
2018-12-09T05:36:40.079Z,94313.67
2018-12-09T05:37:18.077Z,94318.62
2018-12-09T05:37:55.995Z,94316.03
2018-12-09T05:38:34.314Z,94332.09
2018-12-09T05:39:12.454Z,94322.86
2018-12-09T05:39:50.648Z,94324.33
2018-12-09T05:40:28.445Z,94329.17
2018-12-09T05:41:06.255Z,94335.19
2018-12-09T05:41:44.298Z,94340.55
2018-12-09T05:42:21.835Z,94351.41
2018-12-09T05:42:59.957Z,94364.50
2018-12-09T05:43:38.245Z,94373.70
2018-12-09T05:44:16.265Z,94374.55
2018-12-09T05:44:54.275Z,94375.03
2018-12-09T05:45:32.285Z,94373.44
2018-12-09T05:46:10.368Z,94379.50
2018-12-09T05:46:48.296Z,94372.83
2018-12-09T05:47:26.536Z,94376.14
2018-12-09T05:48:05.015Z,94360.04
2018-12-09T05:48:43.426Z,94355.19
2018-12-09T05:49:21.127Z,94371.77
2018-12-09T05:49:59.250Z,94378.06
2018-12-09T05:50:37.476Z,94362.81
2018-12-09T05:51:15.476Z,94371.28
2018-12-09T05:51:54.005Z,94364.61
2018-12-09T05:52:32.219Z,94367.70
2018-12-09T05:53:10.457Z,94362.23
2018-12-09T05:53:48.447Z,94369.75
2018-12-09T05:54:27.557Z,94367.02
2018-12-09T05:55:05.639Z,94363.59
2018-12-09T05:55:43.808Z,94363.02
2018-12-09T05:56:21.523Z,94358.92
2018-12-09T05:57:00.416Z,94356.08
2018-12-09T05:57:38.590Z,94353.19
2018-12-09T05:58:16.528Z,94357.94
2018-12-09T05:58:54.486Z,94360.27
2018-12-09T05:59:32.756Z,94363.03
2018-12-09T06:00:11.208Z,94361.94
2018-12-09T06:00:49.498Z,94365.08
2018-12-09T06:01:27.298Z,94366.08
2018-12-09T06:02:05.167Z,94365.02
2018-12-09T06:02:43.007Z,94367.59
2018-12-09T06:03:21.274Z,94368.91
2018-12-09T06:03:59.268Z,94362.41
2018-12-09T06:04:37.179Z,94367.81
2018-12-09T06:05:15.328Z,94372.91
2018-12-09T06:05:53.193Z,94374.47
2018-12-09T06:06:31.288Z,94377.73
2018-12-09T06:07:09.058Z,94371.41
2018-12-09T06:07:46.950Z,94378.42
2018-12-09T06:08:25.263Z,94379.73
2018-12-09T06:09:03.298Z,94376.23
2018-12-09T06:09:41.180Z,94374.73
2018-12-09T06:10:19.401Z,94386.06
2018-12-09T06:10:57.320Z,94378.33
2018-12-09T06:11:35.803Z,94374.33
2018-12-09T06:12:13.866Z,94374.47
2018-12-09T06:12:51.877Z,94379.66
2018-12-09T06:13:29.707Z,94386.91
2018-12-09T06:14:07.649Z,94393.34
2018-12-09T06:14:45.669Z,94406.16
2018-12-09T06:15:23.870Z,94385.23
2018-12-09T06:16:01.884Z,94389.56
2018-12-09T06:16:39.750Z,94385.56
2018-12-09T06:17:17.649Z,94373.75
2018-12-09T06:17:55.645Z,94384.25
2018-12-09T06:18:33.319Z,94388.75
2018-12-09T06:19:11.331Z,94387.77
2018-12-09T06:19:49.511Z,94383.09
2018-12-09T06:20:27.601Z,94384.50
2018-12-09T06:21:05.651Z,94385.11
2018-12-09T06:21:43.872Z,94389.47
2018-12-09T06:22:22.294Z,94389.04
2018-12-09T06:23:00.219Z,94381.82
2018-12-09T06:23:38.490Z,94391.48
2018-12-09T06:24:16.313Z,94386.98
2018-12-09T06:24:54.272Z,94388.58
2018-12-09T06:25:32.286Z,94388.80
2018-12-09T06:26:11.701Z,94397.55
2018-12-09T06:26:49.883Z,94395.98
2018-12-09T06:27:28.032Z,94391.83
2018-12-09T06:28:06.112Z,94400.84
2018-12-09T06:28:44.112Z,94404.16
2018-12-09T06:29:22.234Z,94409.17
2018-12-09T06:30:00.224Z,94413.75
2018-12-09T06:30:38.983Z,94415.08
2018-12-09T06:31:16.852Z,94410.83
2018-12-09T06:31:55.083Z,94417.48
2018-12-09T06:32:33.027Z,94416.41
2018-12-09T06:33:11.144Z,94417.80
2018-12-09T06:33:49.454Z,94419.97
2018-12-09T06:34:27.695Z,94419.41
2018-12-09T06:35:05.944Z,94422.05
2018-12-09T06:35:43.845Z,94425.64
2018-12-09T06:36:22.347Z,94428.14
2018-12-09T06:37:00.578Z,94431.47
2018-12-09T06:37:38.528Z,94423.95
2018-12-09T06:38:16.316Z,94422.05
2018-12-09T06:38:54.456Z,94435.63
2018-12-09T06:39:32.496Z,94408.14
2018-12-09T06:40:10.558Z,94422.20
2018-12-09T06:40:48.628Z,94415.25
2018-12-09T06:41:26.555Z,94412.50
2018-12-09T06:42:04.438Z,94407.30
2018-12-09T06:42:42.305Z,94413.91
2018-12-09T06:43:20.095Z,94411.41
2018-12-09T06:43:58.127Z,94429.22
2018-12-09T06:44:35.946Z,94436.33
2018-12-09T06:45:14.060Z,94443.02
2018-12-09T06:45:53.316Z,94448.00
2018-12-09T06:46:31.287Z,94448.48
2018-12-09T06:47:09.387Z,94451.05
2018-12-09T06:47:47.467Z,94449.56
2018-12-09T06:48:25.438Z,94446.45
2018-12-09T06:49:03.490Z,94443.48
2018-12-09T06:49:42.219Z,94435.22
2018-12-09T06:50:20.310Z,94430.13
2018-12-09T06:50:58.598Z,94432.62
2018-12-09T06:51:36.350Z,94420.41
2018-12-09T06:52:14.637Z,94422.17
2018-12-09T06:52:52.278Z,94425.02
2018-12-09T06:53:30.645Z,94416.70
2018-12-09T06:54:08.928Z,94413.55
2018-12-09T06:54:48.572Z,94407.58
2018-12-09T06:55:26.628Z,94401.55
2018-12-09T06:56:04.889Z,94401.72
2018-12-09T06:56:43.019Z,94399.16
2018-12-09T06:57:21.219Z,94403.23
2018-12-09T06:57:59.143Z,94400.67
2018-12-09T06:58:37.390Z,94399.94
2018-12-09T06:59:15.482Z,94409.08
2018-12-09T06:59:53.740Z,94397.08
2018-12-09T07:00:31.931Z,94391.21
2018-12-09T07:01:10.074Z,94392.31
2018-12-09T07:01:48.321Z,94393.55
2018-12-09T07:02:26.473Z,94395.23
2018-12-09T07:03:04.120Z,94397.16
2018-12-09T07:03:42.392Z,94400.41
2018-12-09T07:04:20.752Z,94396.17
2018-12-09T07:04:58.735Z,94401.09
2018-12-09T07:05:36.932Z,94396.08
2018-12-09T07:06:15.336Z,94399.58
2018-12-09T07:06:53.191Z,94399.22
2018-12-09T07:07:31.141Z,94402.55
2018-12-09T07:08:09.181Z,94397.97
2018-12-09T07:08:47.230Z,94400.24
2018-12-09T07:09:25.316Z,94393.62
2018-12-09T07:10:03.512Z,94396.17
2018-12-09T07:10:41.443Z,94395.16
2018-12-09T07:11:19.746Z,94402.73
2018-12-09T07:11:57.552Z,94402.33
2018-12-09T07:12:35.546Z,94408.41
2018-12-09T07:13:13.816Z,94416.87
2018-12-09T07:13:51.831Z,94413.50
2018-12-09T07:14:30.142Z,94415.23
2018-12-09T07:15:08.068Z,94414.92
2018-12-09T07:15:46.023Z,94405.08
2018-12-09T07:16:24.217Z,94416.05
2018-12-09T07:17:02.621Z,94420.29
2018-12-09T07:17:40.395Z,94415.91
2018-12-09T07:18:18.523Z,94417.23
2018-12-09T07:18:56.377Z,94414.73
2018-12-09T07:19:34.323Z,94412.09
2018-12-09T07:20:12.154Z,94412.91
2018-12-09T07:20:50.051Z,94413.22
2018-12-09T07:21:28.261Z,94412.39
2018-12-09T07:22:06.507Z,94413.23
2018-12-09T07:22:44.873Z,94409.91
2018-12-09T07:23:22.893Z,94416.06
2018-12-09T07:24:00.675Z,94405.09
2018-12-09T07:24:39.004Z,94412.75
2018-12-09T07:25:17.205Z,94412.09
2018-12-09T07:25:55.403Z,94411.77
2018-12-09T07:26:33.277Z,94408.85
2018-12-09T07:27:12.259Z,94403.61
2018-12-09T07:27:50.112Z,94402.60
2018-12-09T07:28:28.102Z,94400.86